Time;durP1;ratioP1;P1;durP2;ratioP2;P2;SDS_P1;SDS_P2;PMS_P1;PMS_P2;Temp;Humidity;BMP_temperature;BMP_pressure;BME280_temperature;BME280_humidity;BME280_pressure;Samples;Min_cycle;Max_cycle;Signal;HPM_P1;HPM_P2
2022/01/12 00:00:08;;;;;;;13.98;6.05;;;;;;;-2.61;100.00;95270.69;10387484;28;20017;-71
2022/01/12 00:05:09;;;;;;;15.40;7.72;;;;;;;-2.83;100.00;95271.53;10387533;28;20438;-72
2022/01/12 00:10:10;;;;;;;12.85;7.75;;;;;;;-2.76;100.00;95277.75;10387361;28;20029;-70
2022/01/12 00:15:10;;;;;;;18.40;7.65;;;;;;;-2.76;100.00;95273.28;10387173;28;20507;-72
2022/01/12 00:20:11;;;;;;;13.20;7.45;;;;;;;-2.73;100.00;95272.13;10387680;28;20112;-71
2022/01/12 00:35:31;;;;;;;12.35;6.95;;;;;;;-2.97;100.00;95305.50;10388514;28;20070;-76
2022/01/12 00:40:32;;;;;;;12.02;7.13;;;;;;;-3.02;100.00;95307.81;10403841;28;20145;-75
2022/01/12 00:45:37;;;;;;;17.00;8.43;;;;;;;-3.07;100.00;95309.34;10385675;28;20073;-72
2022/01/12 00:50:38;;;;;;;10.13;6.90;;;;;;;-3.03;100.00;95298.28;10369593;28;20017;-71
2022/01/12 00:55:39;;;;;;;16.50;8.85;;;;;;;-3.05;100.00;95297.66;10385077;28;20026;-70
2022/01/12 01:00:39;;;;;;;13.15;6.70;;;;;;;-2.97;100.00;95292.34;10403409;28;20033;-70
2022/01/12 01:05:40;;;;;;;18.42;9.30;;;;;;;-2.95;100.00;95289.53;10385174;28;20021;-72
2022/01/12 01:10:47;;;;;;;13.52;6.68;;;;;;;-2.97;100.00;95281.03;10384965;28;20507;-75
2022/01/12 01:26:07;;;;;;;11.55;7.85;;;;;;;-2.94;100.00;95296.44;10402352;28;20033;-71
2022/01/12 01:31:08;;;;;;;11.20;7.03;;;;;;;-3.11;100.00;95291.28;10384341;28;20025;-70
2022/01/12 01:36:11;;;;;;;9.48;6.05;;;;;;;-3.00;100.00;95300.59;10367812;28;20018;-72
2022/01/12 01:41:11;;;;;;;13.32;6.90;;;;;;;-3.12;100.00;95300.16;10383716;28;20132;-72
2022/01/12 01:56:50;;;;;;;10.52;7.07;;;;;;;-2.89;100.00;95306.44;10361080;28;20026;-72
2022/01/12 02:01:51;;;;;;;14.27;7.78;;;;;;;-2.92;100.00;95304.97;10342623;28;20021;-72
2022/01/12 02:06:54;;;;;;;13.40;6.85;;;;;;;-2.89;100.00;95319.56;10343228;28;20076;-72
2022/01/12 02:11:55;;;;;;;13.63;7.20;;;;;;;-2.94;100.00;95307.78;10360267;28;20038;-71
2022/01/12 02:17:02;;;;;;;11.43;7.75;;;;;;;-3.01;100.00;95319.97;10343288;28;20080;-76
2022/01/12 02:53:48;;;;;;;10.00;6.82;;;;;;;-3.13;100.00;95368.69;10359849;28;20037;-71
2022/01/12 02:58:49;;;;;;;15.18;5.97;;;;;;;-3.22;100.00;95359.19;10360799;28;20038;-72
2022/01/12 03:03:53;;;;;;;9.05;6.85;;;;;;;-3.03;100.00;95361.41;10349815;28;20022;-74
2022/01/12 03:08:53;;;;;;;9.40;6.40;;;;;;;-2.99;100.00;95362.69;10373201;28;20056;-71
2022/01/12 03:13:54;;;;;;;11.18;6.75;;;;;;;-2.97;100.00;95373.88;10367098;28;20026;-78
2022/01/12 03:18:57;;;;;;;11.80;6.82;;;;;;;-2.94;100.00;95391.13;10373087;28;20029;-71
2022/01/12 03:23:59;;;;;;;12.35;5.93;;;;;;;-2.94;100.00;95394.56;10369937;28;20442;-77
2022/01/12 03:29:00;;;;;;;10.82;6.20;;;;;;;-2.93;100.00;95390.94;10367647;28;20037;-73
2022/01/12 03:34:21;;;;;;;10.48;5.38;;;;;;;-2.93;100.00;95403.25;10385688;28;20033;-72
2022/01/12 03:39:22;;;;;;;9.43;6.50;;;;;;;-3.09;100.00;95404.97;10377424;28;20029;-71
2022/01/12 03:44:22;;;;;;;13.85;8.55;;;;;;;-3.15;100.00;95410.13;10368228;28;20492;-75
2022/01/12 03:49:23;;;;;;;10.82;6.40;;;;;;;-3.26;100.00;95413.94;10366835;28;20022;-72
2022/01/12 03:54:23;;;;;;;11.38;7.40;;;;;;;-3.15;100.00;95424.06;10388116;28;20079;-71
2022/01/12 03:59:24;;;;;;;17.10;7.88;;;;;;;-3.28;100.00;95419.38;10387625;28;20442;-71
2022/01/12 04:04:32;;;;;;;17.73;8.63;;;;;;;-3.24;100.00;95440.06;10382506;28;20109;-72
2022/01/12 04:09:33;;;;;;;8.18;6.35;;;;;;;-3.11;100.00;95435.09;10362786;28;20055;-70
2022/01/12 04:14:33;;;;;;;11.73;6.80;;;;;;;-3.13;100.00;95450.19;10365582;28;20029;-71
2022/01/12 04:19:36;;;;;;;18.65;6.07;;;;;;;-3.18;100.00;95463.84;10363061;28;20030;-71
2022/01/12 04:24:36;;;;;;;13.00;6.80;;;;;;;-3.09;100.00;95465.44;10330335;28;20037;-71
2022/01/12 04:29:37;;;;;;;10.45;6.85;;;;;;;-3.19;100.00;95469.28;10346154;28;20032;-71
2022/01/12 04:34:37;;;;;;;11.98;6.95;;;;;;;-3.11;100.00;95474.53;10345996;28;20472;-74
2022/01/12 04:39:38;;;;;;;12.05;5.88;;;;;;;-3.24;100.00;95479.47;10378689;28;20026;-71
2022/01/12 04:44:44;;;;;;;13.23;6.78;;;;;;;-3.24;100.00;95477.66;10386065;28;20060;-71
2022/01/12 04:49:47;;;;;;;12.02;6.13;;;;;;;-3.38;100.00;95486.25;10376599;28;20033;-71
2022/01/12 04:54:48;;;;;;;14.75;7.05;;;;;;;-3.56;100.00;95487.25;10362679;28;20504;-71
2022/01/12 05:00:04;;;;;;;12.10;6.22;;;;;;;-3.70;100.00;95490.56;10385989;28;20115;-71
2022/01/12 05:15:34;;;;;;;15.55;8.80;;;;;;;-3.96;100.00;95518.63;10400759;28;20033;-77
2022/01/12 05:20:35;;;;;;;9.52;7.25;;;;;;;-3.84;100.00;95521.75;10368599;28;20467;-73
2022/01/12 05:25:36;;;;;;;12.85;7.82;;;;;;;-3.84;100.00;95526.19;10383755;28;20021;-74
2022/01/12 05:30:36;;;;;;;12.40;7.88;;;;;;;-4.01;100.00;95544.53;10384292;28;20025;-72
2022/01/12 05:35:37;;;;;;;14.25;8.63;;;;;;;-3.90;100.00;95545.22;10383729;28;20480;-75
2022/01/12 05:40:39;;;;;;;12.80;8.70;;;;;;;-3.95;100.00;95551.78;10367316;28;20033;-72
2022/01/12 05:45:44;;;;;;;13.93;8.10;;;;;;;-3.95;100.00;95553.56;10358848;28;20132;-75
2022/01/12 05:50:48;;;;;;;11.25;7.45;;;;;;;-4.01;100.00;95565.56;10343394;28;20136;-75
2022/01/12 05:55:48;;;;;;;11.50;7.15;;;;;;;-4.01;100.00;95567.38;10367867;28;20022;-79
2022/01/12 06:00:49;;;;;;;13.02;7.05;;;;;;;-4.17;100.00;95576.00;10384199;28;20022;-75
2022/01/12 06:05:49;;;;;;;11.68;7.50;;;;;;;-4.04;100.00;95584.25;10382290;28;20492;-79
2022/01/12 06:10:51;;;;;;;10.18;6.05;;;;;;;-3.96;100.00;95592.16;10353505;28;20026;-77
2022/01/12 06:15:52;;;;;;;14.23;9.73;;;;;;;-4.17;100.00;95613.59;10360121;28;20030;-74
2022/01/12 06:20:52;;;;;;;12.10;9.23;;;;;;;-4.07;100.00;95615.28;10358084;28;20029;-77
2022/01/12 06:25:53;;;;;;;11.98;8.25;;;;;;;-4.13;100.00;95616.72;10342074;28;20468;-75
2022/01/12 06:31:12;;;;;;;9.52;7.22;;;;;;;-4.03;100.00;95622.66;10359604;28;20026;-77
2022/01/12 06:36:16;;;;;;;15.48;8.10;;;;;;;-4.07;100.00;95621.34;10394398;28;20460;-73
2022/01/12 06:41:18;;;;;;;11.25;7.70;;;;;;;-3.88;100.00;95640.41;10408627;28;20579;-77
2022/01/12 06:46:24;;;;;;;11.48;8.05;;;;;;;-3.72;100.00;95639.63;10338156;28;20056;-74
2022/01/12 06:51:25;;;;;;;16.50;9.45;;;;;;;-3.49;100.00;95645.06;10353064;28;20036;-76
2022/01/12 06:56:25;;;;;;;11.85;5.80;;;;;;;-3.33;100.00;95652.97;10371270;28;20037;-73
2022/01/12 07:01:26;;;;;;;8.93;6.30;;;;;;;-3.22;100.00;95657.09;10354297;28;20072;-73
2022/01/12 07:06:27;;;;;;;10.98;7.40;;;;;;;-3.03;100.00;95665.63;10373311;28;20091;-74
2022/01/12 07:11:27;;;;;;;15.70;8.20;;;;;;;-3.01;100.00;95664.47;10355209;28;20124;-77
2022/01/12 07:16:28;;;;;;;16.45;7.32;;;;;;;-2.95;100.00;95666.44;10369756;28;20141;-78
2022/01/12 07:21:29;;;;;;;16.15;6.60;;;;;;;-3.07;100.00;95675.63;10366406;28;20033;-73
2022/01/12 07:26:29;;;;;;;9.32;6.03;;;;;;;-3.13;100.00;95682.38;10365190;28;20013;-79
2022/01/12 07:31:30;;;;;;;15.43;8.68;;;;;;;-3.25;100.00;95688.97;10364370;28;20025;-76
2022/01/12 07:36:30;;;;;;;12.52;7.25;;;;;;;-3.18;100.00;95691.75;10347896;28;20029;-78
2022/01/12 07:41:31;;;;;;;12.05;7.63;;;;;;;-3.27;100.00;95697.00;10364185;28;20030;-78
2022/01/12 07:46:31;;;;;;;12.05;6.93;;;;;;;-3.20;100.00;95696.34;10345904;28;20046;-76
2022/01/12 07:51:31;;;;;;;12.98;7.90;;;;;;;-3.10;100.00;95702.25;10347293;28;20038;-74
2022/01/12 07:56:32;;;;;;;10.75;6.18;;;;;;;-2.85;100.00;95703.06;10347391;28;20403;-79
2022/01/12 08:01:33;;;;;;;14.93;7.30;;;;;;;-2.38;100.00;95704.16;10363633;28;20049;-73
2022/01/12 08:06:33;;;;;;;10.48;7.45;;;;;;;-2.11;100.00;95723.19;10346707;28;20029;-76
2022/01/12 08:11:34;;;;;;;8.70;5.03;;;;;;;-1.68;100.00;95728.94;10363551;28;20037;-77
2022/01/12 08:16:34;;;;;;;13.98;6.20;;;;;;;-1.64;100.00;95734.72;10346821;28;20411;-74
2022/01/12 08:21:35;;;;;;;9.18;5.40;;;;;;;-1.74;100.00;95732.28;10346351;28;20033;-77
2022/01/12 08:26:36;;;;;;;8.15;5.55;;;;;;;-1.89;100.00;95737.44;10346132;28;20026;-76
2022/01/12 08:31:36;;;;;;;7.00;3.85;;;;;;;-1.42;100.00;95738.38;10362281;28;20030;-78
2022/01/12 08:36:38;;;;;;;8.35;4.22;;;;;;;-1.15;100.00;95744.97;10362012;28;20431;-75
2022/01/12 08:41:39;;;;;;;7.78;4.97;;;;;;;-1.10;100.00;95742.63;10345504;28;20029;-75
2022/01/12 08:46:40;;;;;;;6.03;4.45;;;;;;;-0.50;100.00;95747.28;10361613;28;20097;-78
2022/01/12 08:51:41;;;;;;;7.40;4.20;;;;;;;0.22;100.00;95741.41;10361326;28;20125;-77
2022/01/12 08:56:41;;;;;;;12.50;4.85;;;;;;;0.32;94.50;95746.44;10344745;28;20415;-76
2022/01/12 09:01:42;;;;;;;10.82;4.68;;;;;;;-0.34;97.54;95747.13;10363010;28;20044;-76
2022/01/12 09:06:42;;;;;;;9.60;3.97;;;;;;;0.16;98.37;95737.69;10362362;28;20029;-79
2022/01/12 09:11:43;;;;;;;15.43;5.03;;;;;;;-0.41;94.40;95741.75;10360941;28;20455;-76
2022/01/12 09:16:44;;;;;;;8.75;4.60;;;;;;;-0.69;95.66;95738.88;10361913;28;20033;-74
2022/01/12 09:21:44;;;;;;;7.88;4.38;;;;;;;-0.93;100.00;95735.41;10361735;28;20030;-75
2022/01/12 09:26:46;;;;;;;9.13;4.53;;;;;;;-1.19;99.53;95730.50;10360111;28;20022;-74
2022/01/12 09:31:46;;;;;;;7.25;4.63;;;;;;;-1.26;100.00;95725.09;10345134;28;20036;-77
2022/01/12 09:36:47;;;;;;;15.52;5.68;;;;;;;-1.15;100.00;95726.50;10359695;28;20037;-73
2022/01/12 09:41:47;;;;;;;10.38;5.32;;;;;;;-1.18;100.00;95734.78;10359924;28;20175;-72
2022/01/12 09:46:48;;;;;;;5.72;4.60;;;;;;;-1.42;100.00;95733.13;10343628;28;20042;-74
2022/01/12 09:51:51;;;;;;;6.28;3.38;;;;;;;-1.45;100.00;95734.28;10360223;28;20037;-79
2022/01/12 09:56:52;;;;;;;6.72;4.10;;;;;;;-1.14;99.98;95727.34;10343385;28;20113;-73
2022/01/12 10:01:54;;;;;;;3.88;3.15;;;;;;;-1.12;100.00;95727.97;10343677;28;20038;-73
2022/01/12 10:07:04;;;;;;;6.25;4.22;;;;;;;-1.42;100.00;95735.75;10359500;28;20486;-72
2022/01/12 10:12:11;;;;;;;8.57;5.63;;;;;;;-1.72;100.00;95741.66;10359720;28;20483;-79
2022/01/12 10:17:13;;;;;;;6.85;3.83;;;;;;;-1.62;100.00;95737.97;10359595;28;20124;-73
2022/01/12 10:22:17;;;;;;;6.95;4.78;;;;;;;-1.68;100.00;95736.03;10359352;28;20454;-73
2022/01/12 10:27:20;;;;;;;7.00;4.53;;;;;;;-1.49;100.00;95740.88;10359918;28;20033;-73
2022/01/12 10:32:21;;;;;;;9.68;4.63;;;;;;;-1.63;100.00;95742.44;10342292;28;20060;-74
2022/01/12 10:37:22;;;;;;;6.97;4.72;;;;;;;-1.69;100.00;95737.03;10342385;28;20157;-73
2022/01/12 10:42:26;;;;;;;12.25;4.82;;;;;;;-1.79;100.00;95731.97;10358823;28;20025;-72
2022/01/12 10:47:29;;;;;;;6.25;3.97;;;;;;;-1.73;100.00;95731.25;10358307;28;20053;-73
2022/01/12 10:52:40;;;;;;;9.65;4.45;;;;;;;-1.52;100.00;95732.50;10341775;28;20496;-76
2022/01/12 10:57:44;;;;;;;6.95;4.05;;;;;;;-1.36;100.00;95721.06;10358389;28;20506;-73
2022/01/12 11:02:50;;;;;;;6.80;3.92;;;;;;;-1.38;100.00;95726.50;10360095;28;20080;-79
2022/01/12 11:07:52;;;;;;;20.73;7.18;;;;;;;-1.35;100.00;95720.03;10357750;28;20069;-76
2022/01/12 11:12:52;;;;;;;11.15;4.25;;;;;;;-1.09;100.00;95722.34;10376711;28;20030;-73
2022/01/12 11:17:53;;;;;;;19.63;4.88;;;;;;;-1.15;100.00;95725.69;10400484;28;20041;-79
2022/01/12 11:23:04;;;;;;;10.27;4.03;;;;;;;-1.35;100.00;95718.25;10406061;28;20029;-75
2022/01/12 11:28:13;;;;;;;6.95;3.53;;;;;;;-1.35;100.00;95730.59;10388965;28;20403;-77
2022/01/12 11:33:14;;;;;;;6.28;4.18;;;;;;;-1.42;100.00;95738.38;10390102;28;20060;-78
2022/01/12 11:38:30;;;;;;;11.45;4.40;;;;;;;-1.61;100.00;95735.16;10403723;28;20034;-77
2022/01/12 11:43:30;;;;;;;11.68;5.10;;;;;;;-1.53;100.00;95741.38;10348521;28;20037;-73
2022/01/12 11:48:40;;;;;;;6.00;3.80;;;;;;;-1.46;100.00;95748.44;10347717;28;20034;-78
2022/01/12 11:53:55;;;;;;;10.02;3.85;;;;;;;-1.21;100.00;95741.22;10365065;28;20030;-74
2022/01/12 11:59:01;;;;;;;7.40;3.97;;;;;;;-0.99;93.59;95754.59;10363478;28;20501;-74
2022/01/12 12:04:04;;;;;;;6.00;3.85;;;;;;;-0.81;93.15;95748.19;10348322;28;20440;-77
2022/01/12 12:09:10;;;;;;;4.13;3.55;;;;;;;-0.63;92.03;95753.97;10363131;28;20033;-75
2022/01/12 12:14:12;;;;;;;7.88;3.78;;;;;;;-0.63;88.86;95759.25;10363234;28;20026;-75
2022/01/12 12:19:13;;;;;;;9.05;4.00;;;;;;;-0.71;91.39;95757.53;10364820;28;20030;-76
2022/01/12 12:24:15;;;;;;;8.02;4.50;;;;;;;-0.67;86.58;95758.00;10346264;28;20638;-77
2022/01/12 12:29:18;;;;;;;12.15;5.50;;;;;;;-0.62;91.04;95760.09;10330223;28;20072;-74
2022/01/12 12:34:22;;;;;;;10.73;4.97;;;;;;;-0.65;83.53;95756.00;10344763;28;20065;-73
2022/01/12 12:39:24;;;;;;;4.85;4.35;;;;;;;-0.69;87.59;95747.59;10345901;28;20029;-74
2022/01/12 12:44:28;;;;;;;9.48;6.13;;;;;;;-0.89;93.48;95763.09;10361969;28;20042;-77
2022/01/12 12:49:28;;;;;;;11.52;5.43;;;;;;;-0.76;80.86;95759.06;10361882;28;20030;-79
2022/01/12 12:54:29;;;;;;;7.57;4.95;;;;;;;-0.92;87.46;95760.81;10345323;28;20022;-73
2022/01/12 12:59:31;;;;;;;13.40;4.15;;;;;;;-0.92;85.29;95759.97;10345047;28;20026;-76
2022/01/12 13:04:32;;;;;;;20.73;5.55;;;;;;;-0.75;80.77;95761.50;10344884;28;20374;-77
2022/01/12 13:09:32;;;;;;;11.23;5.90;;;;;;;-0.92;83.18;95765.25;10362240;28;20033;-74
2022/01/12 13:14:46;;;;;;;9.52;4.50;;;;;;;-0.83;81.11;95768.69;10361743;28;20400;-73
2022/01/12 13:24:53;;;;;;;10.30;4.43;;;;;;;-1.05;82.04;95776.41;10361927;28;20468;-80
2022/01/12 13:29:54;;;;;;;10.40;5.00;;;;;;;-1.24;84.75;95778.50;10360087;28;20026;-78
2022/01/12 13:34:56;;;;;;;17.15;4.78;;;;;;;-1.03;83.06;95774.41;10359955;28;20412;-76
2022/01/12 13:40:14;;;;;;;7.25;5.60;;;;;;;-1.11;85.23;95777.91;10343833;28;20049;-78
2022/01/12 13:45:18;;;;;;;8.60;5.03;;;;;;;-1.11;89.36;95787.66;10343143;28;20057;-74
2022/01/12 13:50:19;;;;;;;8.35;4.97;;;;;;;-0.99;83.78;95795.97;10363662;28;20141;-73
2022/01/12 13:55:20;;;;;;;9.20;4.88;;;;;;;-0.99;80.87;95795.97;10342397;28;20036;-78
2022/01/12 14:00:21;;;;;;;18.52;6.47;;;;;;;-1.05;81.64;95793.06;10361372;28;20077;-77
2022/01/12 14:05:28;;;;;;;12.45;4.72;;;;;;;-1.07;77.95;95795.03;10343912;28;20041;-79
2022/01/12 14:10:30;;;;;;;8.97;4.57;;;;;;;-1.26;81.73;95806.84;10358401;28;20037;-78
2022/01/12 14:15:33;;;;;;;15.77;5.38;;;;;;;-1.29;83.26;95812.47;10370305;28;20738;-74
2022/01/12 14:20:38;;;;;;;11.30;5.68;;;;;;;-1.31;79.54;95818.91;10383118;28;20025;-72
2022/01/12 14:25:46;;;;;;;8.25;4.03;;;;;;;-1.45;77.67;95812.53;10381473;28;20017;-73
2022/01/12 14:30:46;;;;;;;16.57;5.40;;;;;;;-1.59;79.97;95825.44;10382178;28;20033;-71
2022/01/12 14:35:47;;;;;;;7.20;4.25;;;;;;;-1.78;78.29;95831.94;10382596;28;20454;-78
2022/01/12 14:40:47;;;;;;;10.18;5.13;;;;;;;-1.93;84.34;95831.78;10384283;28;20684;-77
2022/01/12 14:45:49;;;;;;;8.82;4.63;;;;;;;-1.89;84.48;95825.19;10381430;28;20038;-72
2022/01/12 14:50:51;;;;;;;9.52;4.45;;;;;;;-1.99;82.79;95827.19;10381869;28;20030;-71
2022/01/12 14:55:55;;;;;;;8.50;4.63;;;;;;;-2.04;85.84;95834.78;10358816;28;20033;-73
2022/01/12 15:00:56;;;;;;;10.20;4.78;;;;;;;-2.21;88.36;95836.59;10349155;28;20072;-73
2022/01/12 15:06:03;;;;;;;11.15;3.83;;;;;;;-2.28;91.68;95840.91;10348749;28;20028;-72
2022/01/12 15:11:03;;;;;;;7.15;4.65;;;;;;;-2.22;91.39;95842.84;10365929;28;20486;-76
2022/01/12 15:16:04;;;;;;;7.03;4.00;;;;;;;-2.31;91.74;95849.94;10348059;28;20115;-72
2022/01/12 15:21:06;;;;;;;4.75;3.85;;;;;;;-2.32;94.05;95848.28;10348830;28;20049;-72
2022/01/12 15:26:07;;;;;;;7.47;4.57;;;;;;;-2.38;92.98;95850.78;10347637;28;20539;-71
2022/01/12 15:31:07;;;;;;;3.95;3.47;;;;;;;-2.46;91.18;95859.50;10363904;28;20037;-73
2022/01/12 15:36:08;;;;;;;6.55;3.88;;;;;;;-2.51;91.89;95867.03;10363972;28;20029;-72
2022/01/12 15:41:08;;;;;;;6.65;4.15;;;;;;;-2.60;97.65;95869.66;10364488;28;20042;-71
2022/01/12 15:46:08;;;;;;;5.10;3.10;;;;;;;-2.52;94.63;95874.13;10348164;28;20056;-72
2022/01/12 15:51:10;;;;;;;5.57;3.90;;;;;;;-2.48;95.52;95875.44;10405730;28;20022;-72
2022/01/12 15:56:10;;;;;;;10.15;4.45;;;;;;;-2.49;97.22;95883.50;10387623;28;20025;-76
2022/01/12 16:01:11;;;;;;;5.78;3.95;;;;;;;-2.52;92.76;95882.03;10387175;28;20029;-72
2022/01/12 16:06:11;;;;;;;9.05;4.60;;;;;;;-2.48;95.33;95887.78;10387118;28;20021;-76
2022/01/12 16:11:12;;;;;;;8.48;5.00;;;;;;;-2.56;95.70;95899.13;10386696;28;20033;-73
2022/01/12 16:16:12;;;;;;;12.90;6.03;;;;;;;-2.58;94.59;95903.75;10370177;28;20017;-76
2022/01/12 16:21:13;;;;;;;7.03;5.18;;;;;;;-2.54;95.52;95912.97;10386358;28;20032;-74
2022/01/12 16:26:14;;;;;;;8.18;5.18;;;;;;;-2.58;93.48;95917.72;10361831;28;20469;-72
2022/01/12 16:31:23;;;;;;;7.95;4.18;;;;;;;-2.63;97.48;95919.19;10329217;28;20056;-76
2022/01/12 16:36:28;;;;;;;5.35;3.65;;;;;;;-2.75;96.57;95911.59;10401347;28;20518;-76
2022/01/12 16:41:29;;;;;;;11.13;4.28;;;;;;;-2.86;98.20;95935.56;10386238;28;20035;-78
2022/01/12 16:46:29;;;;;;;16.23;4.95;;;;;;;-2.88;96.30;95929.63;10370101;28;20596;-73
2022/01/12 16:51:30;;;;;;;6.82;4.68;;;;;;;-2.95;99.13;95936.53;10404125;28;20507;-74
2022/01/12 16:56:30;;;;;;;10.85;4.40;;;;;;;-3.12;100.00;95940.91;10403606;28;20109;-72
2022/01/12 17:01:31;;;;;;;9.35;5.47;;;;;;;-3.16;100.00;95939.56;10360961;28;20403;-78
2022/01/12 17:06:32;;;;;;;7.93;4.45;;;;;;;-3.44;100.00;95958.16;10348056;28;20026;-73
2022/01/12 17:11:33;;;;;;;8.25;6.38;;;;;;;-3.56;100.00;95962.00;10377663;28;20049;-73
2022/01/12 17:16:33;;;;;;;10.75;4.00;;;;;;;-3.50;100.00;95958.75;10358180;28;20037;-75
2022/01/12 17:21:34;;;;;;;7.03;4.40;;;;;;;-3.39;100.00;95960.31;10349115;28;20033;-72
2022/01/12 17:26:38;;;;;;;12.68;5.57;;;;;;;-3.32;100.00;95950.81;10362423;28;20670;-74
2022/01/12 17:31:41;;;;;;;9.80;4.32;;;;;;;-3.07;100.00;95956.19;10361920;28;20071;-80
2022/01/12 17:36:50;;;;;;;7.97;4.63;;;;;;;-2.95;100.00;95962.81;10362882;28;20523;-73
2022/01/12 17:42:00;;;;;;;6.05;2.97;;;;;;;-2.92;100.00;95947.56;10344676;28;20029;-77
2022/01/12 17:47:05;;;;;;;9.02;5.10;;;;;;;-2.86;100.00;95959.25;10343122;28;20104;-75
2022/01/12 17:52:05;;;;;;;5.82;3.88;;;;;;;-2.75;100.00;95963.38;10358910;28;20034;-74
2022/01/12 17:57:06;;;;;;;12.07;4.80;;;;;;;-2.77;100.00;95965.34;10342919;28;20037;-77
2022/01/12 18:02:08;;;;;;;12.50;4.85;;;;;;;-2.70;99.75;95981.34;10343052;28;20091;-79
2022/01/12 18:07:08;;;;;;;12.80;3.75;;;;;;;-2.79;100.00;95988.34;10343186;28;20037;-74
2022/01/12 18:12:11;;;;;;;10.48;4.47;;;;;;;-2.70;100.00;95995.31;10342291;28;20433;-75
2022/01/12 18:17:13;;;;;;;5.93;3.90;;;;;;;-2.67;100.00;95997.63;10361939;28;20112;-73
2022/01/12 18:22:15;;;;;;;10.48;5.50;;;;;;;-2.64;100.00;95996.47;10361255;28;20117;-72
2022/01/12 18:27:17;;;;;;;11.27;5.22;;;;;;;-2.69;100.00;95999.59;10362046;28;20108;-72
2022/01/12 18:32:19;;;;;;;12.68;6.20;;;;;;;-2.72;100.00;95996.44;10396977;28;20033;-72
2022/01/12 18:37:21;;;;;;;15.48;8.15;;;;;;;-2.73;100.00;96003.53;10396292;28;20025;-75
2022/01/12 18:42:24;;;;;;;10.20;7.60;;;;;;;-2.68;100.00;96000.41;10359645;28;20369;-72
2022/01/12 18:47:25;;;;;;;12.98;7.38;;;;;;;-2.79;100.00;96007.63;10420515;28;20496;-78
2022/01/12 18:52:27;;;;;;;15.95;8.27;;;;;;;-2.72;100.00;96010.44;10397708;28;20029;-77
2022/01/12 18:57:27;;;;;;;21.17;5.82;;;;;;;-2.66;100.00;96014.25;10356494;28;20053;-73
2022/01/12 19:02:27;;;;;;;12.20;5.00;;;;;;;-2.71;100.00;96022.59;10357113;28;20506;-73
2022/01/12 19:07:28;;;;;;;9.07;5.47;;;;;;;-2.62;100.00;96026.09;10340140;28;20029;-72
2022/01/12 19:12:28;;;;;;;9.95;5.43;;;;;;;-2.80;100.00;96024.38;10383807;28;20036;-77
2022/01/12 19:17:29;;;;;;;13.88;7.82;;;;;;;-2.67;100.00;96031.00;10397698;28;20033;-73
2022/01/12 19:22:30;;;;;;;10.73;5.05;;;;;;;-2.76;100.00;96030.16;10380000;28;20080;-73
2022/01/12 19:27:31;;;;;;;18.83;6.10;;;;;;;-2.70;100.00;96032.16;10358551;28;20033;-79
2022/01/12 19:32:31;;;;;;;19.00;4.97;;;;;;;-2.60;100.00;96024.94;10363353;28;20044;-72
2022/01/12 19:37:32;;;;;;;6.57;4.60;;;;;;;-2.66;100.00;96036.09;10380367;28;20025;-72
2022/01/12 19:42:33;;;;;;;18.17;7.75;;;;;;;-2.94;100.00;96038.13;10358953;28;20392;-73
2022/01/12 19:47:33;;;;;;;12.05;6.07;;;;;;;-3.15;100.00;96052.47;10346454;28;20115;-72
2022/01/12 19:52:43;;;;;;;11.15;6.47;;;;;;;-3.07;100.00;96042.97;10362175;28;20052;-74
2022/01/12 19:57:49;;;;;;;15.50;7.63;;;;;;;-3.15;100.00;96041.94;10344694;28;20040;-73
2022/01/12 20:03:03;;;;;;;11.85;6.40;;;;;;;-3.27;100.00;96043.19;10362230;28;20026;-72
2022/01/12 20:08:38;;;;;;;10.75;5.68;;;;;;;-3.20;100.00;96044.22;10330590;28;20032;-73
2022/01/12 20:13:39;;;;;;;14.32;7.38;;;;;;;-3.35;100.00;96046.59;10348415;28;20060;-72
2022/01/12 20:24:24;;;;;;;7.72;5.85;;;;;;;-3.47;100.00;96032.06;10362183;28;20038;-73
2022/01/12 20:29:26;;;;;;;8.43;5.57;;;;;;;-3.47;100.00;96024.97;10345286;28;20467;-73
2022/01/12 20:34:27;;;;;;;15.18;6.68;;;;;;;-3.36;100.00;96034.44;10384463;28;20082;-72
2022/01/12 20:39:28;;;;;;;12.40;6.25;;;;;;;-3.14;100.00;96045.38;10384822;28;20038;-73
2022/01/12 20:44:29;;;;;;;10.68;6.72;;;;;;;-2.93;100.00;96051.13;10378857;28;20053;-71
2022/01/12 20:49:30;;;;;;;9.00;6.50;;;;;;;-2.72;100.00;96051.69;10344475;28;20037;-72
2022/01/12 20:54:31;;;;;;;11.38;6.53;;;;;;;-2.76;100.00;96049.38;10359726;28;20053;-72
2022/01/12 20:59:33;;;;;;;14.45;6.70;;;;;;;-2.58;100.00;96049.31;10360879;28;20032;-70
2022/01/12 21:04:35;;;;;;;15.02;7.40;;;;;;;-2.48;100.00;96046.53;10351601;28;20798;-73
2022/01/12 21:09:36;;;;;;;11.48;7.00;;;;;;;-2.48;100.00;96054.44;10383555;28;20048;-73
2022/01/12 21:14:37;;;;;;;14.65;8.73;;;;;;;-2.39;99.07;96055.28;10384927;28;20040;-73
2022/01/12 21:19:37;;;;;;;9.55;5.80;;;;;;;-2.34;98.55;96057.47;10379959;28;20096;-75
2022/01/12 21:24:38;;;;;;;10.32;5.88;;;;;;;-2.37;95.41;96052.50;10342517;28;20470;-72
2022/01/12 21:29:38;;;;;;;9.55;6.70;;;;;;;-2.43;98.38;96054.81;10486778;23;20077;-79
2022/01/12 21:34:46;;;;;;;10.48;6.78;;;;;;;-2.47;96.56;96050.00;10384249;28;20067;-77
2022/01/12 21:39:54;;;;;;;7.90;6.30;;;;;;;-2.52;99.69;96053.09;10344058;28;20046;-77
2022/01/12 21:44:54;;;;;;;11.82;7.57;;;;;;;-2.51;100.00;96060.03;10360853;28;20596;-77
2022/01/12 21:49:54;;;;;;;9.93;6.10;;;;;;;-2.56;100.00;96046.50;10361191;28;20087;-75
2022/01/12 21:54:55;;;;;;;9.00;4.93;;;;;;;-2.79;98.83;96041.81;10360102;28;20030;-75
2022/01/12 21:59:55;;;;;;;5.65;4.55;;;;;;;-2.67;99.72;96038.91;10343171;28;20049;-72
2022/01/12 22:04:58;;;;;;;11.02;4.97;;;;;;;-2.58;97.07;96044.03;10358520;28;20168;-77
2022/01/12 22:10:00;;;;;;;9.02;5.40;;;;;;;-2.63;97.76;96041.06;10360437;28;20034;-77
2022/01/12 22:15:02;;;;;;;6.47;4.90;;;;;;;-2.82;97.84;96047.41;10358959;28;20026;-76
2022/01/12 22:20:03;;;;;;;7.72;4.38;;;;;;;-2.81;98.14;96045.59;10342585;28;20572;-72
2022/01/12 22:25:04;;;;;;;7.20;6.50;;;;;;;-2.87;100.00;96060.19;10358661;28;20495;-72
2022/01/12 22:30:05;;;;;;;5.38;4.53;;;;;;;-2.69;100.00;96062.75;10364774;28;20111;-77
2022/01/12 22:35:09;;;;;;;11.18;5.45;;;;;;;-2.62;100.00;96069.03;10383104;28;20037;-76
2022/01/12 22:40:10;;;;;;;5.40;4.93;;;;;;;-2.61;100.00;96069.84;10399907;28;20034;-76
2022/01/12 22:45:11;;;;;;;8.25;6.68;;;;;;;-2.59;100.00;96066.06;10397866;28;20392;-72
2022/01/12 22:50:11;;;;;;;9.77;6.40;;;;;;;-2.54;100.00;96078.78;10378749;28;20095;-73
2022/01/12 22:55:12;;;;;;;8.88;4.03;;;;;;;-2.60;100.00;96076.75;10365928;28;20563;-72
2022/01/12 23:00:15;;;;;;;7.28;4.38;;;;;;;-2.60;100.00;96074.94;10382617;28;20120;-72
2022/01/12 23:05:16;;;;;;;10.10;4.95;;;;;;;-2.69;100.00;96060.13;10382230;28;20840;-74
2022/01/12 23:10:16;;;;;;;10.27;6.63;;;;;;;-2.86;100.00;96056.59;10381823;28;20029;-72
2022/01/12 23:15:17;;;;;;;6.55;4.95;;;;;;;-2.79;100.00;96052.34;10401186;28;20368;-73
2022/01/12 23:20:18;;;;;;;10.48;6.80;;;;;;;-2.68;100.00;96058.28;10389393;28;20570;-73
2022/01/12 23:25:18;;;;;;;9.15;5.40;;;;;;;-2.69;98.63;96070.63;10406963;28;20061;-73
2022/01/12 23:30:20;;;;;;;9.98;7.10;;;;;;;-2.70;99.61;96071.63;10389123;28;20586;-74
2022/01/12 23:41:58;;;;;;;14.25;9.43;;;;;;;-2.90;100.00;96086.81;10408317;28;20037;-72
2022/01/12 23:56:54;;;;;;;39.28;16.23;;;;;;;-2.74;100.00;96088.69;10406227;28;20033;-73
